This is the latest recevied weather packets stored in our database for station/object N7AWM. If no packets are shown the sender has not sent any weather packets the latest 10 day(s).
| Time | Temp. | Humidity | Pressure | Rain* | Wind** | Luminosity | Snow |
|---|---|---|---|---|---|---|---|
| 1777547438 | 7.22° C | 72% | 1019.2 hPa | 0 mm | - | - | - |
| 1777546598 | 8.33° C | 69% | 1019.2 hPa | 0 mm | - | - | - |
| 1777545759 | 8.33° C | 69% | 1019.1 hPa | 0 mm | - | - | - |
| 1777544919 | 8.33° C | 68% | 1019.1 hPa | 0 mm | - | - | - |
| 1777544079 | 8.89° C | 67% | 1019.1 hPa | 0 mm | - | - | - |
| 1777543239 | 9.44° C | 65% | 1019.2 hPa | 0 mm | - | - | - |
| 1777542399 | 10° C | 65% | 1019.2 hPa | 0 mm | - | - | - |
| 1777541559 | 8.89° C | 68% | 1019.2 hPa | 0 mm | - | - | - |
| 1777540719 | 9.44° C | 65% | 1019.2 hPa | 0 mm | - | - | - |
| 1777539879 | 10.56° C | 63% | 1019.2 hPa | 0 mm | - | - | - |
| 1777539039 | 9.44° C | 67% | 1019.4 hPa | 0 mm | - | - | - |
| 1777538199 | 10° C | 65% | 1019.4 hPa | 0 mm | - | - | - |
| 1777537359 | 10° C | 64% | 1019.5 hPa | 0 mm | - | - | - |
| 1777536519 | 10° C | 64% | 1019.5 hPa | 0 mm | - | - | - |
| 1777535679 | 10.56° C | 63% | 1019.5 hPa | 0 mm | - | - | - |
| 1777534840 | 10.56° C | 64% | 1019.4 hPa | 0 mm | - | - | - |
| 1777533999 | 10° C | 65% | 1019.4 hPa | 0 mm | - | - | - |
| 1777533160 | 10° C | 64% | 1019.4 hPa | 0 mm | - | - | - |
| 1777532320 | 10.56° C | 64% | 1019.3 hPa | 0 mm | - | - | - |
| 1777531480 | 10° C | 64% | 1019.4 hPa | 0 mm | - | - | - |
| 1777530673 | 11.67° C | 58% | 1019.2 hPa | 0 mm | - | - | - |
| 1777530640 | 11.67° C | 58% | 1019.2 hPa | 0 mm | - | - | - |
| 1777529800 | 11.67° C | 59% | 1019.2 hPa | 0 mm | - | - | - |
| 1777528960 | 12.78° C | 56% | 1019.1 hPa | 0 mm | - | - | - |
| 1777528120 | 12.22° C | 58% | 1019.1 hPa | 0 mm | - | - | - |
* Rain latest hour (hover to see other rain measurements)
** Current wind speed in m/s (hover to see current wind gust speed)